Time;durP1;ratioP1;P1;durP2;ratioP2;P2;SDS_P1;SDS_P2;PMS_P1;PMS_P2;Temp;Humidity;BMP_temperature;BMP_pressure;BME280_temperature;BME280_humidity;BME280_pressure;Samples;Min_cycle;Max_cycle;Signal;HPM_P1;HPM_P2
2021/03/31 00:00:27;;;;;;;10.60;5.88;;;;;;;5.77;100.00;96937.88;1035538;28;20113;-48
2021/03/31 00:00:57;;;;;;;14.02;6.32;;;;;;;5.76;100.00;96939.66;1027742;28;20023;-48
2021/03/31 00:01:28;;;;;;;9.73;6.70;;;;;;;5.77;100.00;96935.28;1035643;28;20672;-51
2021/03/31 00:01:59;;;;;;;11.85;6.78;;;;;;;5.74;100.00;96937.97;1039763;28;20029;-49
2021/03/31 00:02:29;;;;;;;15.15;6.03;;;;;;;5.73;100.00;96937.16;1035794;28;20604;-47
2021/03/31 00:03:01;;;;;;;15.93;6.75;;;;;;;5.71;100.00;96938.13;1035750;28;20018;-50
2021/03/31 00:03:32;;;;;;;12.90;6.80;;;;;;;5.73;100.00;96942.34;1043647;28;20017;-50
2021/03/31 00:04:03;;;;;;;12.00;6.45;;;;;;;5.61;100.00;96917.63;1043942;28;20330;-50
2021/03/31 00:04:34;;;;;;;12.25;7.07;;;;;;;5.69;100.00;96934.69;1039790;28;20021;-47
2021/03/31 00:05:06;;;;;;;11.30;6.47;;;;;;;5.69;100.00;96935.56;1031807;28;20026;-50
2021/03/31 00:05:36;;;;;;;8.93;6.03;;;;;;;5.70;100.00;96933.81;1027486;28;20613;-49
2021/03/31 00:06:17;;;;;;;11.52;6.63;;;;;;;5.69;100.00;96932.97;1035728;28;20268;-49
2021/03/31 00:06:48;;;;;;;10.55;6.85;;;;;;;5.67;100.00;96933.91;1039756;28;20021;-47
2021/03/31 00:07:18;;;;;;;12.82;6.28;;;;;;;5.63;100.00;96936.63;1035703;28;20257;-48
2021/03/31 00:07:49;;;;;;;13.18;6.00;;;;;;;5.69;100.00;96934.69;1039772;28;20032;-49
2021/03/31 00:08:20;;;;;;;11.60;6.40;;;;;;;5.73;100.00;96936.31;1031723;28;20180;-50
2021/03/31 00:08:51;;;;;;;10.75;6.25;;;;;;;5.72;100.00;96934.59;1035733;28;20029;-50
2021/03/31 00:09:22;;;;;;;13.60;6.72;;;;;;;5.69;100.00;96927.75;1035619;28;20117;-48
2021/03/31 00:09:52;;;;;;;10.68;7.03;;;;;;;5.63;100.00;96927.94;1027625;28;20025;-51
2021/03/31 00:10:27;;;;;;;13.43;6.93;;;;;;;5.60;100.00;96923.72;1035567;28;20032;-47
2021/03/31 00:10:59;;;;;;;11.60;6.07;;;;;;;5.61;100.00;96933.22;1035773;28;20484;-48
2021/03/31 00:11:30;;;;;;;11.85;6.85;;;;;;;5.60;100.00;96933.28;1031753;28;20261;-47
2021/03/31 00:12:00;;;;;;;9.43;5.80;;;;;;;5.58;100.00;96925.53;1031620;28;20774;-52
2021/03/31 00:12:31;;;;;;;11.15;6.70;;;;;;;5.57;100.00;96933.38;1039646;28;20018;-48
2021/03/31 00:13:03;;;;;;;11.88;7.75;;;;;;;5.61;100.00;96929.75;1035790;28;20491;-48
2021/03/31 00:13:34;;;;;;;9.32;5.85;;;;;;;5.60;100.00;96925.47;1031571;28;20053;-49
2021/03/31 00:14:05;;;;;;;12.35;6.70;;;;;;;5.58;100.00;96928.13;1035661;28;20282;-51
2021/03/31 00:14:36;;;;;;;15.23;6.50;;;;;;;5.59;100.00;96926.38;1043843;28;20388;-48
2021/03/31 00:15:08;;;;;;;12.13;6.45;;;;;;;5.58;100.00;96927.28;1039788;28;20268;-49
2021/03/31 00:15:39;;;;;;;9.88;6.38;;;;;;;5.58;100.00;96930.72;1035701;28;20265;-50
2021/03/31 00:16:10;;;;;;;16.10;7.03;;;;;;;5.59;100.00;96926.38;1039591;28;20271;-48
2021/03/31 00:16:41;;;;;;;13.23;7.35;;;;;;;5.56;100.00;96926.50;1039782;28;20304;-51
2021/03/31 00:17:11;;;;;;;13.07;6.53;;;;;;;5.56;100.00;96923.91;1039813;28;20060;-49
2021/03/31 00:17:42;;;;;;;14.77;6.57;;;;;;;5.55;100.00;96922.19;1043911;28;20045;-48
2021/03/31 00:18:14;;;;;;;13.20;6.88;;;;;;;5.52;100.00;96924.88;1031612;28;20538;-50
2021/03/31 00:18:44;;;;;;;12.27;6.82;;;;;;;5.49;100.00;96923.25;1039745;28;20375;-48
2021/03/31 00:19:15;;;;;;;13.38;6.70;;;;;;;5.51;100.00;96936.19;1035765;28;20315;-48
2021/03/31 00:19:46;;;;;;;9.68;6.30;;;;;;;5.49;100.00;96927.59;1031690;28;20029;-48
2021/03/31 00:20:17;;;;;;;12.70;6.90;;;;;;;5.45;100.00;96922.50;1039670;28;20029;-48
2021/03/31 00:20:48;;;;;;;11.93;6.47;;;;;;;5.43;100.00;96924.31;1031542;28;20029;-48
2021/03/31 00:21:18;;;;;;;12.73;6.25;;;;;;;5.43;100.00;96921.72;1031724;28;20257;-47
2021/03/31 00:21:49;;;;;;;10.90;6.57;;;;;;;5.41;100.00;96926.09;1039853;28;20026;-49
2021/03/31 00:22:20;;;;;;;10.00;6.55;;;;;;;5.40;100.00;96918.34;1035444;28;20115;-45
2021/03/31 00:22:50;;;;;;;12.93;6.35;;;;;;;5.18;100.00;96885.31;1027528;28;20027;-49
2021/03/31 00:23:23;;;;;;;14.23;6.70;;;;;;;5.39;100.00;96922.72;1035707;28;20045;-49
2021/03/31 00:23:54;;;;;;;12.27;6.20;;;;;;;5.37;100.00;96915.88;1031461;28;20026;-48
2021/03/31 00:24:24;;;;;;;12.82;6.65;;;;;;;5.36;100.00;96921.97;1031636;28;20262;-47
2021/03/31 00:24:55;;;;;;;12.52;6.88;;;;;;;5.35;100.00;96917.66;1035794;28;20025;-51
2021/03/31 00:25:26;;;;;;;12.88;5.97;;;;;;;5.33;100.00;96925.53;1035610;28;20026;-48
2021/03/31 00:25:57;;;;;;;12.35;7.20;;;;;;;5.33;100.00;96914.25;1039601;28;20037;-48
2021/03/31 00:26:28;;;;;;;13.52;6.93;;;;;;;5.33;100.00;96916.88;1043791;28;20500;-49
2021/03/31 00:26:59;;;;;;;13.90;6.15;;;;;;;5.34;100.00;96915.97;1039784;28;20325;-48
2021/03/31 00:27:29;;;;;;;13.50;6.88;;;;;;;5.32;100.00;96909.97;1035667;28;20104;-49
2021/03/31 00:28:00;;;;;;;10.95;6.72;;;;;;;5.32;100.00;96916.03;1035727;28;20078;-49
2021/03/31 00:28:31;;;;;;;12.30;6.72;;;;;;;5.32;100.00;96916.03;1027512;28;20026;-48
2021/03/31 00:29:02;;;;;;;12.60;6.32;;;;;;;5.30;100.00;96914.38;1039791;28;20112;-49
2021/03/31 00:29:32;;;;;;;12.98;6.57;;;;;;;5.28;100.00;96911.00;1035677;28;20435;-48
2021/03/31 00:30:06;;;;;;;12.57;6.85;;;;;;;5.29;100.00;96915.28;1043805;28;20028;-49
2021/03/31 00:30:36;;;;;;;11.82;6.55;;;;;;;5.29;100.00;96918.72;1043660;28;20029;-46
2021/03/31 00:31:08;;;;;;;14.05;7.10;;;;;;;5.29;100.00;96915.28;1035768;28;20261;-52
2021/03/31 00:31:39;;;;;;;19.88;6.88;;;;;;;5.26;100.00;96911.88;1035668;28;20392;-48
2021/03/31 00:32:09;;;;;;;14.43;6.65;;;;;;;5.26;100.00;96916.25;1043824;28;20267;-55
2021/03/31 00:32:40;;;;;;;11.55;6.38;;;;;;;5.27;100.00;96920.50;1039586;28;20033;-49
2021/03/31 00:33:11;;;;;;;14.35;7.50;;;;;;;5.25;100.00;96904.13;1035717;28;20026;-48
2021/03/31 00:33:42;;;;;;;11.70;6.35;;;;;;;5.23;100.00;96917.16;1035402;28;20022;-48
2021/03/31 00:34:12;;;;;;;12.05;6.90;;;;;;;5.22;100.00;96919.84;1043947;28;20131;-47
2021/03/31 00:34:43;;;;;;;15.35;6.68;;;;;;;5.23;100.00;96919.78;1043739;28;20082;-48
2021/03/31 00:35:14;;;;;;;18.35;7.03;;;;;;;5.24;100.00;96918.03;1035820;28;20026;-48
2021/03/31 00:35:45;;;;;;;12.02;7.35;;;;;;;5.24;100.00;96916.28;1043780;28;20107;-48
2021/03/31 00:36:16;;;;;;;14.35;7.25;;;;;;;5.22;100.00;96915.50;1039720;28;20511;-49
2021/03/31 00:36:47;;;;;;;20.17;7.22;;;;;;;5.19;100.00;96910.38;1039568;28;20248;-49
2021/03/31 00:37:17;;;;;;;13.48;6.95;;;;;;;5.22;100.00;96914.66;1039912;28;20076;-50
2021/03/31 00:37:48;;;;;;;12.35;6.47;;;;;;;5.23;100.00;96917.16;1031665;28;20636;-50
2021/03/31 00:38:19;;;;;;;18.10;7.45;;;;;;;5.24;100.00;96913.69;1039726;28;20089;-48
2021/03/31 00:38:50;;;;;;;11.20;6.78;;;;;;;5.25;100.00;96915.41;1035619;28;20082;-52
2021/03/31 00:39:20;;;;;;;14.68;6.82;;;;;;;5.26;100.00;96909.28;1043908;28;20395;-49
2021/03/31 00:39:51;;;;;;;12.77;7.82;;;;;;;5.24;100.00;96912.84;1039764;28;20017;-48
2021/03/31 00:40:25;;;;;;;11.52;7.00;;;;;;;5.24;100.00;96913.69;1048080;28;20044;-50
2021/03/31 00:40:56;;;;;;;10.95;6.70;;;;;;;5.23;100.00;96911.97;1047720;28;20024;-52
2021/03/31 00:41:26;;;;;;;11.40;7.03;;;;;;;5.23;100.00;96911.97;1027559;28;20341;-47
2021/03/31 00:41:57;;;;;;;11.43;7.00;;;;;;;5.22;100.00;96912.06;1031568;28;20412;-48
2021/03/31 00:42:28;;;;;;;17.48;7.35;;;;;;;5.19;100.00;96910.38;1039700;28;20049;-49
2021/03/31 00:42:58;;;;;;;11.85;6.70;;;;;;;5.18;100.00;96916.50;1035717;28;20515;-49
2021/03/31 00:43:29;;;;;;;11.02;7.40;;;;;;;5.19;100.00;96915.59;1035679;28;20061;-48
2021/03/31 00:44:00;;;;;;;14.07;7.93;;;;;;;5.18;100.00;96913.91;1035782;28;20109;-50
2021/03/31 00:44:31;;;;;;;14.23;8.25;;;;;;;5.17;100.00;96912.19;1039771;28;20025;-47
2021/03/31 00:45:03;;;;;;;16.25;8.00;;;;;;;5.15;100.00;96906.19;1035621;28;20057;-49
2021/03/31 00:45:34;;;;;;;12.85;7.45;;;;;;;5.16;100.00;96909.63;1031690;28;20117;-51
2021/03/31 00:46:05;;;;;;;10.05;6.70;;;;;;;5.14;100.00;96904.50;1035692;28;20261;-49
2021/03/31 00:46:35;;;;;;;13.18;7.07;;;;;;;5.16;100.00;96913.09;1031712;28;20487;-49
2021/03/31 00:47:06;;;;;;;17.33;7.88;;;;;;;5.15;100.00;96910.56;1035577;28;20475;-50
2021/03/31 00:47:37;;;;;;;12.40;7.15;;;;;;;5.13;100.00;96914.94;1039756;28;20061;-47
2021/03/31 00:48:13;;;;;;;16.83;6.93;;;;;;;5.12;100.00;96913.25;1035750;28;20161;-48
2021/03/31 00:48:44;;;;;;;16.52;7.07;;;;;;;5.07;100.00;96910.81;1031558;28;20015;-49
2021/03/31 00:49:15;;;;;;;14.93;7.18;;;;;;;5.07;100.00;96911.66;1031487;28;20246;-49
2021/03/31 00:49:46;;;;;;;15.60;8.23;;;;;;;5.09;100.00;96910.72;1039800;28;20197;-48
2021/03/31 00:50:17;;;;;;;10.65;7.18;;;;;;;5.09;100.00;96911.59;1035579;28;20092;-48
2021/03/31 00:50:51;;;;;;;19.52;7.03;;;;;;;5.06;100.00;96909.09;1039595;28;20021;-51
2021/03/31 00:51:22;;;;;;;16.00;7.35;;;;;;;5.09;100.00;96909.00;1043668;28;20255;-51
2021/03/31 00:51:53;;;;;;;13.55;7.25;;;;;;;5.10;100.00;96912.44;1035742;28;20253;-48
2021/03/31 00:52:24;;;;;;;11.88;6.78;;;;;;;5.09;100.00;96913.34;1039659;28;20025;-48
2021/03/31 00:52:55;;;;;;;17.52;7.43;;;;;;;5.09;100.00;96906.41;1039836;28;20044;-48
2021/03/31 00:53:30;;;;;;;11.63;7.38;;;;;;;5.13;100.00;96904.56;1043779;28;20499;-48
2021/03/31 00:54:01;;;;;;;13.48;7.88;;;;;;;5.11;100.00;96914.16;1039695;28;20029;-49
2021/03/31 00:54:32;;;;;;;14.07;7.90;;;;;;;5.08;100.00;96904.69;1043771;28;20430;-46
2021/03/31 00:55:03;;;;;;;11.40;7.45;;;;;;;5.07;100.00;96903.03;1039714;28;20029;-50
2021/03/31 00:55:34;;;;;;;16.30;7.93;;;;;;;5.05;100.00;96907.41;1035513;28;20523;-47
2021/03/31 00:56:05;;;;;;;12.68;7.22;;;;;;;5.02;100.00;96908.34;1031619;28;20370;-50
2021/03/31 00:56:36;;;;;;;11.20;7.47;;;;;;;5.02;100.00;96903.16;1031514;28;20033;-47
2021/03/31 00:57:07;;;;;;;14.05;7.47;;;;;;;5.00;100.00;96909.31;1039762;28;20435;-49
2021/03/31 00:57:38;;;;;;;14.07;7.65;;;;;;;5.01;100.00;96906.66;1039564;28;20060;-47
2021/03/31 00:58:09;;;;;;;17.40;8.43;;;;;;;5.01;100.00;96909.25;1031549;28;20118;-50
2021/03/31 00:58:40;;;;;;;14.80;7.60;;;;;;;5.02;100.00;96902.31;1031562;28;20648;-49
2021/03/31 00:59:10;;;;;;;12.35;8.23;;;;;;;5.01;100.00;96904.06;1035998;28;20029;-52
2021/03/31 00:59:41;;;;;;;14.05;7.20;;;;;;;5.00;100.00;96904.13;1039556;28;20465;-50
2021/03/31 01:00:13;;;;;;;15.60;8.32;;;;;;;4.98;100.00;96900.72;1035766;28;20022;-51
2021/03/31 01:00:44;;;;;;;17.15;8.25;;;;;;;4.97;100.00;96907.63;1031546;28;20567;-49
2021/03/31 01:01:15;;;;;;;12.05;7.13;;;;;;;4.96;100.00;96905.97;1039765;28;20232;-52
2021/03/31 01:01:46;;;;;;;12.30;7.72;;;;;;;4.95;100.00;96899.06;1031460;28;20258;-49
2021/03/31 01:02:17;;;;;;;12.27;7.78;;;;;;;4.95;100.00;96901.66;1035643;28;20061;-47
2021/03/31 01:02:47;;;;;;;15.23;8.35;;;;;;;4.95;100.00;96906.84;1039908;28;20256;-48
2021/03/31 01:03:18;;;;;;;17.33;8.57;;;;;;;4.94;100.00;96896.53;1032286;28;20018;-48
2021/03/31 01:03:49;;;;;;;17.60;8.88;;;;;;;4.94;100.00;96894.78;1040094;28;20068;-49
2021/03/31 01:04:20;;;;;;;12.57;7.65;;;;;;;4.94;100.00;96896.53;1036382;28;20053;-48
2021/03/31 01:04:51;;;;;;;13.45;8.30;;;;;;;4.91;100.00;96897.47;1044576;28;20009;-48
2021/03/31 01:05:24;;;;;;;15.73;7.63;;;;;;;4.92;100.00;96900.91;1036558;28;20013;-48
2021/03/31 01:05:55;;;;;;;12.48;7.25;;;;;;;4.91;100.00;96897.47;1036217;28;20459;-47
2021/03/31 01:06:26;;;;;;;14.43;7.20;;;;;;;4.90;100.00;96897.50;1036244;28;20344;-49
2021/03/31 01:06:56;;;;;;;12.38;7.85;;;;;;;4.87;100.00;96891.50;1032397;28;20028;-48
2021/03/31 01:07:27;;;;;;;15.45;7.95;;;;;;;4.86;100.00;96897.63;1028287;28;20018;-50
2021/03/31 01:07:58;;;;;;;17.52;8.45;;;;;;;4.85;100.00;96893.31;1040430;28;20075;-48
2021/03/31 01:08:29;;;;;;;10.05;6.97;;;;;;;4.85;100.00;96895.91;1040363;28;20025;-49
2021/03/31 01:08:59;;;;;;;12.57;6.95;;;;;;;4.83;100.00;96902.91;1040461;28;20029;-49
2021/03/31 01:09:30;;;;;;;14.90;7.22;;;;;;;4.83;100.00;96896.88;1040499;28;20017;-48
2021/03/31 01:10:01;;;;;;;13.18;7.32;;;;;;;4.83;100.00;96896.88;1032263;28;20029;-49
2021/03/31 01:10:43;;;;;;;13.30;7.60;;;;;;;4.81;100.00;96899.50;1032533;28;20022;-47
2021/03/31 01:11:20;;;;;;;15.38;8.25;;;;;;;4.82;100.00;96896.03;1036422;28;20046;-49
2021/03/31 01:11:56;;;;;;;12.77;6.70;;;;;;;4.80;100.00;96894.38;1036485;28;20271;-46
2021/03/31 01:12:39;;;;;;;12.63;7.22;;;;;;;4.82;100.00;96898.63;1040822;28;20302;-49
2021/03/31 01:13:17;;;;;;;14.82;6.70;;;;;;;4.54;100.00;96858.84;1040801;28;20315;-47
2021/03/31 01:13:54;;;;;;;12.77;7.07;;;;;;;4.87;100.00;96895.88;1032180;28;20304;-48
2021/03/31 01:14:35;;;;;;;16.80;8.50;;;;;;;4.84;100.00;96896.81;1032391;28;20254;-52
2021/03/31 01:15:25;;;;;;;11.15;7.10;;;;;;;4.86;100.00;96897.63;1047866;28;20306;-53
2021/03/31 01:16:00;;;;;;;;;;;;;;;4.86;100.00;96902.81;1045035;28;20018;-53
2021/03/31 01:16:43;;;;;;;13.82;7.50;;;;;;;4.85;100.00;96901.09;1047872;28;19913;-49
2021/03/31 01:17:19;;;;;;;14.40;7.90;;;;;;;4.84;100.00;96904.63;1048361;28;20261;-51
2021/03/31 01:18:09;;;;;;;13.98;7.85;;;;;;;4.82;100.00;96897.75;1047661;28;20252;-54
2021/03/31 01:18:59;;;;;;;16.42;8.70;;;;;;;4.78;100.00;96896.16;1045294;28;20252;-52
2021/03/31 01:19:51;;;;;;;14.68;8.60;;;;;;;4.74;100.00;96897.16;1042433;28;20033;-53
2021/03/31 01:20:40;;;;;;;12.65;7.70;;;;;;;4.70;100.00;96895.56;1037255;28;20053;-55
2021/03/31 01:21:30;;;;;;;13.75;7.70;;;;;;;4.67;100.00;96893.91;1035779;28;20272;-49
2021/03/31 01:22:20;;;;;;;16.13;8.18;;;;;;;4.66;100.00;96894.81;1045376;28;20347;-48
2021/03/31 01:23:11;;;;;;;14.95;8.07;;;;;;;4.63;100.00;96895.75;1046992;28;20509;-49
2021/03/31 01:24:05;;;;;;;14.85;7.97;;;;;;;4.61;100.00;96900.13;1043020;28;20451;-48
2021/03/31 01:24:51;;;;;;;18.02;9.10;;;;;;;4.59;100.00;96894.16;1040201;28;20261;-51
2021/03/31 01:25:32;;;;;;;12.77;8.10;;;;;;;4.53;100.00;96889.16;1049965;28;20283;-48
2021/03/31 01:26:22;;;;;;;12.95;7.75;;;;;;;4.53;100.00;96883.97;1036246;28;20652;-48
2021/03/31 01:26:57;;;;;;;15.85;8.13;;;;;;;4.47;100.00;96891.94;1032276;28;20254;-48
2021/03/31 01:27:47;;;;;;;13.55;7.72;;;;;;;4.46;100.00;96891.06;1036283;28;20084;-49
2021/03/31 01:28:40;;;;;;;12.57;7.70;;;;;;;4.44;100.00;96892.88;1044565;28;20259;-48
2021/03/31 01:29:27;;;;;;;13.05;7.90;;;;;;;4.49;100.00;96887.56;1046339;28;20025;-48
2021/03/31 01:30:17;;;;;;;13.75;7.13;;;;;;;4.51;100.00;96895.31;1039035;28;20256;-48
2021/03/31 01:30:58;;;;;;;10.45;7.00;;;;;;;4.47;100.00;96892.78;1031508;28;20361;-47
2021/03/31 01:31:30;;;;;;;13.38;7.60;;;;;;;4.48;100.00;96896.22;1036256;28;20026;-48
2021/03/31 01:32:22;;;;;;;14.20;7.97;;;;;;;4.48;100.00;96894.47;1036121;28;20271;-48
2021/03/31 01:33:03;;;;;;;14.30;8.23;;;;;;;4.56;100.00;96893.38;1036204;28;20714;-48
2021/03/31 01:33:41;;;;;;;16.10;7.95;;;;;;;4.57;100.00;96897.69;1039923;28;20260;-48
2021/03/31 01:34:31;;;;;;;17.25;8.07;;;;;;;4.64;100.00;96888.81;1032191;28;20045;-48
2021/03/31 01:35:04;;;;;;;15.98;7.53;;;;;;;4.59;100.00;96890.72;1032186;28;20260;-48
2021/03/31 01:35:35;;;;;;;15.70;8.07;;;;;;;4.56;100.00;96893.38;1032158;28;20472;-48
2021/03/31 01:36:06;;;;;;;12.60;7.90;;;;;;;4.53;100.00;96893.50;1040187;28;20264;-48
2021/03/31 01:36:37;;;;;;;14.38;7.93;;;;;;;4.50;100.00;96891.00;1040383;28;20022;-47
2021/03/31 01:37:11;;;;;;;13.57;8.57;;;;;;;4.47;100.00;96890.19;1032264;28;20125;-48
2021/03/31 01:37:53;;;;;;;13.48;8.30;;;;;;;4.45;100.00;96892.00;1036048;28;20388;-47
2021/03/31 01:38:25;;;;;;;13.40;7.47;;;;;;;4.44;100.00;96886.84;1040249;28;20260;-47
2021/03/31 01:39:00;;;;;;;16.85;8.15;;;;;;;4.43;100.00;96890.31;1044413;28;20271;-48
2021/03/31 01:39:31;;;;;;;15.77;8.18;;;;;;;4.40;100.00;96886.09;1032266;28;20261;-47
2021/03/31 01:40:05;;;;;;;13.00;8.63;;;;;;;4.37;100.00;96888.75;1036212;28;20658;-48
2021/03/31 01:40:36;;;;;;;14.23;8.15;;;;;;;4.42;100.00;96886.88;1036106;28;20034;-46
2021/03/31 01:41:07;;;;;;;16.10;8.23;;;;;;;4.48;100.00;96886.69;1040170;28;20330;-48
2021/03/31 01:41:37;;;;;;;15.10;9.38;;;;;;;4.48;100.00;96889.28;1044445;28;20309;-48
2021/03/31 01:42:09;;;;;;;18.30;8.65;;;;;;;4.50;100.00;96881.44;1044241;28;20375;-48
2021/03/31 01:42:44;;;;;;;13.50;7.97;;;;;;;4.50;100.00;96891.84;1036213;28;20026;-48
2021/03/31 01:43:17;;;;;;;17.20;8.80;;;;;;;4.48;100.00;96888.44;1036146;28;20265;-47
2021/03/31 01:43:50;;;;;;;16.23;8.80;;;;;;;4.48;100.00;96883.25;1028038;28;20253;-49
2021/03/31 01:44:21;;;;;;;14.73;8.18;;;;;;;4.44;100.00;96882.50;1029536;28;20569;-48
2021/03/31 01:44:55;;;;;;;15.00;9.30;;;;;;;4.45;100.00;96880.78;1036062;28;20347;-46
2021/03/31 01:45:29;;;;;;;14.43;9.05;;;;;;;4.42;100.00;96886.88;1036137;28;20021;-49
2021/03/31 01:46:00;;;;;;;14.82;8.63;;;;;;;4.39;100.00;96886.13;1027954;28;20294;-48
2021/03/31 01:46:31;;;;;;;20.05;9.15;;;;;;;4.37;100.00;96886.16;1036216;28;20245;-51
2021/03/31 01:47:01;;;;;;;15.93;9.35;;;;;;;4.36;100.00;96897.47;1040328;28;20025;-48
2021/03/31 01:47:35;;;;;;;16.67;8.55;;;;;;;4.34;100.00;96888.88;1040269;28;20036;-48
2021/03/31 01:48:10;;;;;;;13.95;8.85;;;;;;;4.33;100.00;96891.50;1044326;28;20032;-50
2021/03/31 01:48:41;;;;;;;14.23;8.55;;;;;;;4.32;100.00;96890.66;1044295;28;20661;-48
2021/03/31 01:49:11;;;;;;;15.77;9.63;;;;;;;4.31;100.00;96890.72;1036125;28;20344;-49
2021/03/31 01:49:42;;;;;;;14.50;9.10;;;;;;;4.30;100.00;96887.28;1040295;28;20026;-49
2021/03/31 01:50:13;;;;;;;17.17;8.90;;;;;;;4.27;100.00;96885.59;1044248;28;20029;-50
2021/03/31 01:50:51;;;;;;;15.23;7.93;;;;;;;4.28;100.00;96884.72;1040214;28;20021;-48
2021/03/31 01:51:21;;;;;;;15.40;9.02;;;;;;;4.24;100.00;96877.06;1032099;28;20273;-47
2021/03/31 01:51:55;;;;;;;15.43;8.43;;;;;;;4.28;100.00;96887.31;1044406;28;20267;-47
2021/03/31 01:52:25;;;;;;;16.88;8.52;;;;;;;4.27;100.00;96885.59;1044222;28;20029;-50
2021/03/31 01:52:56;;;;;;;16.33;8.85;;;;;;;4.27;100.00;96887.34;1036074;28;20268;-48
2021/03/31 01:53:27;;;;;;;16.05;8.50;;;;;;;4.24;100.00;96880.53;1040141;28;20395;-51
2021/03/31 01:53:58;;;;;;;15.55;8.65;;;;;;;4.24;100.00;96883.13;1035915;28;20197;-48
2021/03/31 01:54:29;;;;;;;15.63;8.90;;;;;;;4.23;100.00;96885.75;1035991;28;20348;-51
2021/03/31 01:55:00;;;;;;;14.80;8.50;;;;;;;4.19;100.00;96884.16;1036094;28;20183;-48
2021/03/31 01:55:30;;;;;;;15.70;8.88;;;;;;;4.25;100.00;96887.41;1036083;28;20343;-48
2021/03/31 01:56:01;;;;;;;13.25;8.98;;;;;;;4.24;100.00;96883.13;1040243;28;20021;-50
2021/03/31 01:56:32;;;;;;;16.63;8.57;;;;;;;4.23;100.00;96883.16;1035976;28;20054;-48
2021/03/31 01:57:03;;;;;;;16.65;8.40;;;;;;;4.21;100.00;96883.19;1040220;28;20111;-48
2021/03/31 01:57:34;;;;;;;14.05;8.52;;;;;;;4.20;100.00;96883.25;1044339;28;20059;-48
2021/03/31 01:58:15;;;;;;;16.75;9.27;;;;;;;4.17;100.00;96886.78;1032129;28;20261;-48
2021/03/31 01:58:46;;;;;;;13.13;8.80;;;;;;;4.18;100.00;96885.03;1032055;28;20403;-48
2021/03/31 01:59:18;;;;;;;13.38;7.90;;;;;;;4.17;100.00;96880.75;1044278;28;20252;-49
2021/03/31 01:59:50;;;;;;;17.25;8.88;;;;;;;4.15;100.00;96882.53;1040183;28;20521;-49
2021/03/31 02:00:21;;;;;;;13.40;8.80;;;;;;;4.13;100.00;96885.19;1028114;28;20362;-49
2021/03/31 02:00:52;;;;;;;17.35;8.50;;;;;;;4.12;100.00;96885.22;1029118;28;20242;-49
2021/03/31 02:01:23;;;;;;;15.80;9.43;;;;;;;4.12;100.00;96883.47;1036135;28;20545;-48
2021/03/31 02:01:54;;;;;;;15.25;8.68;;;;;;;4.12;100.00;96886.06;1040198;28;20502;-48
2021/03/31 02:02:25;;;;;;;18.50;8.63;;;;;;;4.13;100.00;96880.00;1048373;28;20629;-48
2021/03/31 02:02:56;;;;;;;14.82;9.05;;;;;;;4.11;100.00;96881.78;1040083;28;20363;-49
2021/03/31 02:03:28;;;;;;;17.05;9.05;;;;;;;4.11;100.00;96878.31;1036026;28;20041;-48
2021/03/31 02:03:59;;;;;;;15.20;8.45;;;;;;;4.08;100.00;96881.88;1040093;28;20450;-46
2021/03/31 02:04:32;;;;;;;15.32;9.07;;;;;;;4.08;100.00;96882.72;1035991;28;20289;-52
2021/03/31 02:05:04;;;;;;;17.17;9.30;;;;;;;4.07;100.00;96883.63;1040126;28;20020;-49
2021/03/31 02:05:35;;;;;;;11.82;8.50;;;;;;;4.06;100.00;96884.50;1032091;28;20249;-47
2021/03/31 02:06:05;;;;;;;22.48;9.55;;;;;;;4.03;100.00;96878.56;1040112;28;20848;-50
2021/03/31 02:06:36;;;;;;;16.90;8.93;;;;;;;4.03;100.00;96879.41;1040169;28;20032;-47
2021/03/31 02:07:07;;;;;;;15.38;9.27;;;;;;;4.02;100.00;96880.31;1036016;28;20035;-48
2021/03/31 02:07:39;;;;;;;15.20;9.35;;;;;;;4.01;100.00;96873.41;1040117;28;20025;-50
2021/03/31 02:08:10;;;;;;;15.30;8.52;;;;;;;4.01;100.00;96877.75;1040136;28;20366;-49
2021/03/31 02:08:41;;;;;;;16.50;8.95;;;;;;;4.02;100.00;96877.72;1040095;28;20333;-48
2021/03/31 02:09:12;;;;;;;17.23;8.65;;;;;;;4.00;100.00;96874.31;1031973;28;20030;-49
2021/03/31 02:09:45;;;;;;;17.45;9.27;;;;;;;3.98;100.00;96876.13;1040190;28;20264;-48
2021/03/31 02:10:17;;;;;;;18.52;9.25;;;;;;;3.97;100.00;96876.16;1044196;28;20753;-50
2021/03/31 02:10:49;;;;;;;15.38;9.18;;;;;;;3.95;100.00;96876.19;1040144;28;20267;-47
2021/03/31 02:11:19;;;;;;;16.25;8.48;;;;;;;3.95;100.00;96876.19;1031956;28;20280;-48
2021/03/31 02:11:50;;;;;;;15.82;8.68;;;;;;;3.95;100.00;96877.94;1044212;28;20769;-49
2021/03/31 02:12:23;;;;;;;15.95;8.65;;;;;;;3.94;100.00;96874.50;1036014;28;20026;-48
2021/03/31 02:12:53;;;;;;;18.27;8.98;;;;;;;3.94;100.00;96879.69;1032067;28;20080;-48
2021/03/31 02:13:24;;;;;;;17.77;8.98;;;;;;;3.95;100.00;96872.75;1040144;28;20335;-51
2021/03/31 02:13:56;;;;;;;14.23;8.82;;;;;;;3.95;100.00;96873.59;1039773;28;20028;-48
2021/03/31 02:14:27;;;;;;;18.02;8.90;;;;;;;3.96;100.00;96877.91;1039473;28;20030;-48
2021/03/31 02:14:58;;;;;;;17.08;8.35;;;;;;;3.94;100.00;96878.81;1035830;28;20717;-50
2021/03/31 02:15:29;;;;;;;14.48;8.85;;;;;;;3.95;100.00;96870.16;1027876;28;20559;-48
2021/03/31 02:16:00;;;;;;;17.05;8.98;;;;;;;3.92;100.00;96876.28;1036016;28;20109;-48
2021/03/31 02:16:31;;;;;;;14.68;9.05;;;;;;;3.92;100.00;96876.28;1040100;28;20252;-48
2021/03/31 02:17:02;;;;;;;18.60;9.15;;;;;;;3.91;100.00;96872.00;1036046;28;20260;-51
2021/03/31 02:17:33;;;;;;;18.83;10.00;;;;;;;3.89;100.00;96873.78;1035912;28;20253;-48
2021/03/31 02:18:06;;;;;;;14.63;9.50;;;;;;;3.87;100.00;96876.41;1044183;28;20343;-49
2021/03/31 02:18:37;;;;;;;17.15;9.77;;;;;;;3.90;100.00;96875.47;1032104;28;20795;-48
2021/03/31 02:19:11;;;;;;;15.00;8.95;;;;;;;3.93;100.00;96875.38;1032079;28;20327;-48
2021/03/31 02:19:42;;;;;;;15.82;9.00;;;;;;;3.92;100.00;96871.09;1035907;28;20033;-48
2021/03/31 02:20:16;;;;;;;17.52;9.15;;;;;;;3.94;100.00;96874.50;1036042;28;20790;-49
2021/03/31 02:20:47;;;;;;;18.42;9.65;;;;;;;3.93;100.00;96872.78;1028022;28;20274;-49
2021/03/31 02:21:17;;;;;;;13.55;8.52;;;;;;;3.92;100.00;96878.88;1044238;28;20259;-48
2021/03/31 02:21:48;;;;;;;12.90;9.40;;;;;;;3.89;100.00;96874.63;1043988;28;20131;-51
2021/03/31 02:22:21;;;;;;;16.83;8.43;;;;;;;3.88;100.00;96872.91;1035893;28;20045;-47
2021/03/31 02:22:52;;;;;;;16.58;8.70;;;;;;;3.89;100.00;96873.78;1040098;28;20112;-49
2021/03/31 02:23:23;;;;;;;16.73;9.27;;;;;;;3.88;100.00;96870.31;1040177;28;20271;-49
2021/03/31 02:23:54;;;;;;;15.70;9.32;;;;;;;3.88;100.00;96878.09;1031687;28;20057;-49
2021/03/31 02:24:24;;;;;;;15.60;9.23;;;;;;;3.88;100.00;96872.91;1040146;28;20017;-50
2021/03/31 02:24:55;;;;;;;13.13;8.60;;;;;;;3.87;100.00;96871.22;1040260;28;20479;-48
2021/03/31 02:25:26;;;;;;;21.23;10.60;;;;;;;3.85;100.00;96867.84;1048256;28;20024;-48
2021/03/31 02:25:57;;;;;;;12.75;8.90;;;;;;;3.86;100.00;96866.94;1039820;28;20053;-49
2021/03/31 02:26:27;;;;;;;11.52;8.57;;;;;;;3.87;100.00;96871.22;1036082;28;20582;-48
2021/03/31 02:26:58;;;;;;;19.30;9.10;;;;;;;3.86;100.00;96869.53;1028183;28;20023;-47
2021/03/31 02:27:28;;;;;;;17.27;8.93;;;;;;;3.87;100.00;96879.00;1032380;28;20388;-50
2021/03/31 02:28:00;;;;;;;17.95;9.38;;;;;;;3.84;100.00;96865.28;1035863;28;20026;-48
2021/03/31 02:28:31;;;;;;;21.08;9.27;;;;;;;3.87;100.00;96875.56;1040086;28;20028;-53
2021/03/31 02:29:02;;;;;;;14.55;9.55;;;;;;;3.84;100.00;96865.28;1036010;28;20344;-48
2021/03/31 02:29:32;;;;;;;13.60;8.82;;;;;;;3.85;100.00;96867.00;1036052;28;20244;-51
2021/03/31 02:30:06;;;;;;;11.90;8.75;;;;;;;3.84;100.00;96876.50;1035736;28;20132;-48
2021/03/31 02:30:37;;;;;;;15.23;9.82;;;;;;;3.84;100.00;96867.88;1031854;28;20023;-47
2021/03/31 02:31:08;;;;;;;14.75;9.65;;;;;;;3.85;100.00;96872.19;1040032;28;20273;-45
2021/03/31 02:31:39;;;;;;;20.00;8.82;;;;;;;3.83;100.00;96863.56;1027929;28;20489;-51
2021/03/31 02:32:09;;;;;;;19.20;8.60;;;;;;;3.82;100.00;96867.06;1031885;28;20030;-49
2021/03/31 02:32:41;;;;;;;18.33;8.93;;;;;;;3.81;100.00;96863.63;1040097;28;20022;-48
2021/03/31 02:33:12;;;;;;;21.42;9.30;;;;;;;3.82;100.00;96864.47;1044178;28;20071;-48
2021/03/31 02:33:44;;;;;;;14.65;8.93;;;;;;;3.79;100.00;96861.97;1039814;28;20653;-49